createdAt,value
2023-06-27T07:22:47.923Z,23.70
2023-06-27T07:25:17.747Z,24.10
2023-06-27T07:30:16.378Z,23.90
2023-06-27T07:32:45.480Z,24.20
2023-06-27T07:35:14.276Z,24.40
2023-06-27T07:37:42.894Z,24.60
2023-06-27T07:40:11.793Z,25.10
2023-06-27T07:42:40.478Z,24.70
2023-06-27T07:45:11.030Z,24.80
2023-06-27T07:47:39.782Z,25.10
2023-06-27T07:50:08.750Z,25.10
2023-06-27T07:52:37.368Z,25.20
2023-06-27T07:55:13.089Z,25.40
2023-06-27T07:57:41.769Z,25.70
2023-06-27T08:00:11.719Z,25.50
2023-06-27T08:02:41.739Z,25.60
2023-06-27T08:05:10.844Z,25.60
2023-06-27T08:07:39.555Z,25.80
2023-06-27T08:10:08.519Z,25.70
2023-06-27T08:12:38.717Z,26.00
2023-06-27T08:15:07.914Z,25.80
2023-06-27T08:17:36.660Z,25.80
2023-06-27T08:20:07.010Z,25.90
2023-06-27T08:22:35.691Z,25.90
2023-06-27T08:25:07.588Z,25.80
2023-06-27T08:27:36.282Z,25.90
2023-06-27T08:30:05.516Z,25.80
2023-06-27T08:32:34.447Z,25.80
2023-06-27T08:35:06.147Z,25.90
2023-06-27T08:37:34.865Z,25.80
2023-06-27T08:40:05.152Z,25.80
2023-06-27T08:42:33.979Z,25.80
2023-06-27T08:45:03.634Z,25.80
2023-06-27T08:47:33.814Z,25.70
2023-06-27T08:50:07.731Z,25.70
2023-06-27T08:52:39.555Z,25.70
2023-06-27T08:55:11.151Z,25.80
2023-06-27T08:57:40.365Z,25.70
2023-06-27T09:00:11.696Z,26.30
2023-06-27T09:02:45.890Z,25.60
2023-06-27T09:05:17.062Z,25.80
2023-06-27T09:07:46.125Z,25.80
2023-06-27T09:10:21.017Z,25.70
2023-06-27T09:12:51.993Z,25.80
2023-06-27T09:15:20.791Z,25.70
2023-06-27T09:17:49.846Z,25.60
2023-06-27T09:20:19.939Z,25.70
2023-06-27T09:22:50.684Z,25.70
2023-06-27T09:25:23.550Z,26.00
2023-06-27T09:27:54.796Z,26.10
2023-06-27T09:30:24.079Z,25.20
2023-06-27T09:32:58.467Z,26.00
2023-06-27T09:41:01.145Z,25.90
2023-06-27T09:44:02.351Z,25.80
2023-06-27T09:46:46.023Z,25.80
2023-06-27T09:49:45.221Z,25.80
2023-06-27T09:52:37.063Z,25.70
2023-06-27T09:55:05.509Z,25.70
2023-06-27T09:58:39.244Z,25.60
2023-06-27T10:14:17.495Z,25.60
2023-06-27T10:17:23.356Z,25.60
2023-06-27T10:26:05.285Z,25.40
2023-06-27T10:28:59.388Z,25.40
2023-06-27T10:37:49.414Z,25.30
2023-06-27T10:40:18.057Z,25.40
2023-06-27T10:42:49.749Z,25.70
2023-06-27T10:45:19.266Z,25.60
2023-06-27T10:47:49.237Z,25.70
2023-06-27T10:50:22.457Z,25.70
2023-06-27T10:53:08.184Z,25.70
2023-06-27T10:55:38.955Z,25.70
2023-06-27T10:58:11.334Z,25.60
2023-06-27T11:00:48.441Z,25.50
2023-06-27T11:03:20.730Z,25.80
2023-06-27T11:05:55.917Z,25.70
2023-06-27T11:08:27.673Z,25.70
2023-06-27T11:11:07.226Z,25.70
2023-06-27T11:13:38.248Z,26.00
2023-06-27T11:16:07.206Z,25.90
2023-06-27T11:18:36.130Z,25.90
2023-06-27T11:21:04.977Z,26.00
2023-06-27T11:23:35.218Z,26.10
2023-06-27T11:26:04.007Z,26.10
2023-06-27T11:28:32.640Z,26.10
2023-06-27T11:31:02.101Z,26.00
2023-06-27T11:33:30.950Z,26.10
2023-06-27T11:36:01.229Z,26.10
2023-06-27T11:38:30.688Z,26.00
2023-06-27T11:40:59.488Z,25.90
2023-06-27T11:43:31.157Z,25.80
2023-06-27T11:46:01.627Z,25.80
2023-06-27T11:48:30.236Z,25.60
2023-06-27T11:51:11.555Z,25.60
2023-06-27T11:56:27.189Z,25.50
2023-06-27T11:58:58.876Z,25.40
2023-06-27T12:01:28.844Z,25.40
2023-06-27T12:03:57.560Z,25.70
2023-06-27T12:06:32.771Z,25.80
2023-06-27T12:09:01.570Z,25.80
2023-06-27T12:11:34.536Z,26.00
2023-06-27T12:14:05.335Z,26.20
2023-06-27T12:16:36.313Z,26.30
2023-06-27T12:19:07.140Z,26.30
2023-06-27T12:24:06.258Z,26.70
2023-06-27T12:26:35.040Z,26.50
2023-06-27T12:29:06.238Z,26.60
2023-06-27T12:31:36.759Z,26.60
2023-06-27T12:34:05.746Z,26.60
2023-06-27T12:36:36.135Z,26.60
2023-06-27T12:39:04.941Z,26.50
2023-06-27T12:41:33.734Z,26.50
2023-06-27T12:44:02.382Z,26.40
2023-06-27T12:46:32.582Z,26.30
2023-06-27T12:49:01.257Z,26.30
2023-06-27T12:51:31.187Z,26.30
2023-06-27T12:54:01.129Z,26.10
2023-06-27T12:56:32.415Z,26.10
2023-06-27T12:59:01.070Z,26.00
2023-06-27T13:01:32.550Z,26.00
2023-06-27T13:04:01.248Z,26.00
2023-06-27T13:06:29.838Z,26.00
2023-06-27T13:09:00.094Z,26.30
2023-06-27T13:11:28.788Z,26.20
2023-06-27T13:13:57.401Z,26.40
2023-06-27T13:16:28.004Z,26.70
2023-06-27T13:18:56.665Z,27.00
2023-06-27T13:21:25.289Z,27.00
2023-06-27T13:23:53.905Z,27.30
2023-06-27T13:26:24.201Z,27.70
2023-06-27T13:28:52.848Z,27.90
2023-06-27T13:31:21.550Z,28.00
2023-06-27T13:33:50.348Z,28.10
2023-06-27T13:36:21.173Z,28.00
2023-06-27T13:38:49.907Z,27.90
2023-06-27T13:41:18.508Z,27.90
2023-06-27T13:43:48.244Z,27.90
2023-06-27T13:46:17.272Z,28.00
2023-06-27T13:48:46.007Z,27.90
2023-06-27T13:51:14.814Z,28.00
2023-06-27T13:53:44.500Z,28.00
2023-06-27T13:56:13.272Z,27.80
2023-06-27T13:58:42.374Z,27.40
2023-06-27T14:01:13.981Z,27.50
2023-06-27T14:03:42.751Z,27.50
2023-06-27T14:06:11.632Z,27.60
2023-06-27T14:08:40.825Z,27.50
2023-06-27T14:11:14.273Z,27.50
2023-06-27T14:13:45.142Z,27.50
2023-06-27T14:16:18.196Z,27.50
2023-06-27T14:18:47.155Z,27.60
2023-06-27T14:21:17.993Z,27.80
2023-06-27T14:26:15.088Z,27.50
2023-06-27T14:28:43.843Z,27.80
2023-06-27T14:31:12.685Z,27.70
2023-06-27T14:33:41.445Z,27.60
2023-06-27T14:36:20.512Z,27.50
2023-06-27T14:38:41.503Z,27.50
2023-06-27T14:41:11.661Z,27.50
2023-06-27T14:43:41.141Z,27.60
2023-06-27T14:46:10.542Z,27.60
2023-06-27T14:48:40.674Z,27.60
2023-06-27T14:51:10.900Z,27.60
2023-06-27T14:53:39.592Z,27.60
2023-06-27T14:56:08.325Z,27.60
2023-06-27T14:58:37.237Z,27.50
2023-06-27T15:01:06.046Z,27.50
2023-06-27T15:03:35.775Z,27.40
2023-06-27T15:06:04.555Z,27.40
2023-06-27T15:08:33.189Z,27.30
2023-06-27T15:11:01.915Z,27.20
2023-06-27T15:13:33.936Z,27.30
2023-06-27T15:16:00.896Z,27.10
2023-06-27T15:18:29.526Z,27.10
2023-06-27T15:20:59.574Z,27.10
2023-06-27T15:23:37.812Z,27.50
2023-06-27T15:25:58.502Z,27.10
2023-06-27T15:28:27.215Z,27.20
2023-06-27T15:30:55.997Z,27.30
2023-06-27T15:33:24.677Z,27.50
2023-06-27T15:35:53.282Z,27.60
2023-06-27T15:38:21.930Z,27.70
2023-06-27T15:40:50.653Z,27.80
2023-06-27T15:43:19.281Z,27.80
2023-06-27T15:45:47.919Z,27.70
2023-06-27T15:48:16.611Z,27.70
2023-06-27T15:50:45.324Z,27.70
2023-06-27T15:53:14.047Z,27.50
2023-06-27T15:55:42.652Z,27.40
2023-06-27T15:58:11.292Z,27.40
2023-06-27T16:00:40.173Z,27.30
2023-06-27T16:03:09.606Z,27.30
2023-06-27T16:05:38.349Z,27.30
2023-06-27T16:08:07.006Z,27.30
2023-06-27T16:10:35.624Z,27.20
2023-06-27T16:13:04.254Z,27.20
2023-06-27T16:15:32.889Z,27.10
2023-06-27T16:18:01.610Z,27.00
2023-06-27T16:20:30.844Z,27.00
2023-06-27T16:22:59.483Z,26.80
2023-06-27T16:25:28.158Z,26.90
2023-06-27T16:27:56.889Z,26.90
2023-06-27T16:30:25.630Z,26.90
2023-06-27T16:32:54.309Z,27.00
2023-06-27T16:42:38.692Z,27.00
2023-06-27T17:44:14.244Z,25.80
2023-06-27T18:12:25.725Z,25.00
2023-06-27T18:14:54.385Z,25.60
2023-06-27T18:17:23.044Z,24.90
2023-06-27T18:19:51.662Z,24.90
2023-06-27T18:22:20.332Z,24.90
2023-06-27T18:24:49.164Z,24.80
2023-06-27T18:27:17.924Z,24.80
2023-06-27T18:29:48.213Z,24.80
2023-06-27T18:32:16.858Z,24.80
2023-06-27T18:34:45.565Z,24.70
2023-06-27T18:37:14.248Z,24.70
2023-06-27T18:39:45.247Z,24.60
2023-06-27T18:42:13.984Z,26.90
2023-06-27T18:44:42.624Z,24.60
2023-06-27T18:47:11.266Z,24.50
2023-06-27T18:49:42.081Z,24.50
2023-06-27T18:52:10.725Z,24.40
2023-06-27T18:54:39.345Z,24.40
2023-06-27T18:57:08.216Z,24.40
2023-06-27T19:02:23.037Z,24.30
2023-06-27T19:04:51.956Z,24.20
2023-06-27T19:07:20.704Z,23.90
2023-06-27T19:09:49.357Z,24.10
2023-06-27T19:12:17.991Z,24.10
2023-06-27T19:14:46.627Z,24.10
2023-06-27T19:17:15.268Z,24.00
2023-06-27T19:19:46.030Z,24.00
2023-06-27T19:22:16.621Z,23.90
2023-06-27T19:24:45.242Z,23.80
2023-06-27T19:27:14.468Z,23.80
2023-06-27T19:29:43.127Z,23.80
2023-06-27T19:32:11.795Z,23.80
2023-06-27T19:34:40.417Z,23.70
2023-06-27T19:37:09.070Z,23.70
2023-06-27T19:39:37.750Z,23.60
2023-06-27T19:42:06.608Z,23.60
2023-06-27T19:44:35.321Z,23.60
2023-06-27T19:47:05.188Z,23.60
2023-06-27T19:49:33.843Z,23.60
2023-06-27T19:52:02.483Z,23.40
2023-06-27T19:54:31.497Z,23.40
2023-06-27T19:57:02.018Z,23.40
2023-06-27T19:59:30.665Z,23.30
2023-06-27T20:01:59.306Z,23.40
2023-06-27T20:04:28.014Z,23.30
2023-06-27T20:06:56.634Z,23.30
2023-06-27T20:09:25.395Z,23.20
2023-06-27T20:11:54.163Z,23.30
2023-06-27T20:14:22.978Z,23.20
2023-06-27T20:16:51.688Z,23.20
2023-06-27T20:19:20.709Z,23.20
2023-06-27T20:21:49.356Z,23.20
2023-06-27T20:24:19.240Z,23.10
2023-06-27T20:26:47.892Z,23.10
2023-06-27T20:29:16.527Z,23.00
2023-06-27T20:31:45.190Z,23.00
2023-06-27T20:34:14.387Z,23.00
2023-06-27T20:36:43.005Z,22.90
2023-06-27T20:39:12.620Z,22.90
2023-06-27T20:41:41.310Z,22.90
2023-06-27T20:44:10.037Z,22.90
2023-06-27T20:46:38.662Z,22.60
2023-06-27T20:49:07.289Z,22.80
2023-06-27T20:51:36.241Z,22.80
2023-06-27T20:54:04.930Z,22.80
2023-06-27T20:56:33.583Z,22.70
2023-06-27T20:59:02.215Z,22.80
2023-06-27T21:01:30.967Z,22.80
2023-06-27T21:04:00.654Z,22.80
2023-06-27T21:06:29.751Z,22.80
2023-06-27T21:08:58.372Z,22.60
2023-06-27T21:11:27.034Z,22.70
2023-06-27T21:13:55.665Z,22.70
2023-06-27T21:16:24.296Z,22.60
2023-06-27T21:18:54.588Z,22.60
2023-06-27T21:21:23.221Z,22.60
2023-06-27T21:23:51.865Z,22.50
2023-06-27T21:26:20.489Z,22.50
2023-06-27T21:28:49.365Z,22.50
2023-06-27T21:31:19.301Z,22.40
2023-06-27T21:33:50.369Z,22.50
2023-06-27T21:36:18.977Z,22.40
2023-06-27T21:38:47.783Z,22.40
2023-06-27T21:41:16.414Z,22.40
2023-06-27T21:43:45.028Z,22.40
2023-06-27T21:46:13.653Z,22.00
2023-06-27T21:48:42.289Z,22.30
2023-06-27T21:51:10.937Z,22.20
2023-06-27T21:53:39.578Z,22.20
2023-06-27T21:56:08.280Z,22.20
2023-06-27T21:58:36.934Z,22.20
2023-06-27T22:01:06.124Z,22.10
2023-06-27T22:03:38.792Z,22.10
2023-06-27T22:06:06.805Z,22.10
2023-06-27T22:08:35.456Z,22.00
2023-06-27T22:11:04.291Z,22.00
2023-06-27T22:13:32.924Z,21.90
2023-06-27T22:16:01.780Z,21.80
2023-06-27T22:18:30.413Z,21.80
2023-06-27T22:20:59.019Z,21.60
2023-06-27T22:23:27.718Z,21.70
2023-06-27T22:25:56.406Z,21.70
2023-06-27T22:28:25.122Z,21.70
2023-06-27T22:30:53.756Z,21.50
2023-06-27T22:33:22.474Z,21.50
2023-06-27T22:35:51.093Z,21.50
2023-06-27T22:38:19.873Z,21.40
2023-06-27T22:40:48.489Z,21.30
2023-06-27T22:43:17.100Z,21.30
2023-06-27T22:45:45.740Z,21.30
2023-06-27T22:48:14.415Z,21.10
2023-06-27T22:50:44.016Z,21.20
2023-06-27T22:53:12.913Z,21.20
2023-06-27T22:58:22.741Z,21.10
2023-06-27T23:00:51.385Z,21.20
2023-06-27T23:03:19.965Z,21.10
2023-06-27T23:05:50.216Z,20.80
2023-06-27T23:08:18.938Z,21.00
2023-06-27T23:10:47.550Z,21.20
2023-06-27T23:13:16.251Z,21.00
2023-06-27T23:15:44.959Z,21.00
2023-06-27T23:18:15.602Z,20.90
2023-06-27T23:20:49.192Z,20.90
2023-06-27T23:23:18.499Z,20.90
2023-06-27T23:25:48.819Z,20.90
2023-06-27T23:28:18.397Z,20.90
2023-06-27T23:30:54.953Z,20.80
2023-06-27T23:33:24.906Z,20.80
2023-06-27T23:35:53.621Z,20.80
2023-06-27T23:38:22.482Z,21.00
2023-06-27T23:40:51.209Z,20.60
2023-06-27T23:43:19.865Z,20.70
2023-06-27T23:45:48.544Z,20.80
2023-06-27T23:48:17.160Z,20.60
2023-06-27T23:53:14.378Z,20.60
2023-06-27T23:55:43.989Z,20.60
2023-06-27T23:58:12.576Z,20.50
